createdAt,value
2019-01-13T00:02:16.002Z,6.82
2019-01-13T00:07:19.472Z,6.84
2019-01-13T00:12:22.897Z,6.79
2019-01-13T00:17:26.344Z,6.77
2019-01-13T00:22:29.786Z,6.78
2019-01-13T00:27:33.213Z,6.82
2019-01-13T00:32:36.635Z,6.79
2019-01-13T00:37:40.079Z,6.74
2019-01-13T00:42:43.624Z,6.76
2019-01-13T00:47:47.141Z,6.75
2019-01-13T00:52:50.575Z,6.75
2019-01-13T00:57:53.997Z,6.80
2019-01-13T01:02:57.455Z,6.79
2019-01-13T01:08:00.866Z,6.80
2019-01-13T01:13:04.538Z,6.81
2019-01-13T01:18:07.988Z,6.78
2019-01-13T01:23:11.478Z,6.88
2019-01-13T01:28:14.982Z,6.85
2019-01-13T01:33:25.721Z,6.77
2019-01-13T01:38:23.592Z,6.79
2019-01-13T01:43:27.218Z,6.76
2019-01-13T01:48:30.651Z,6.80
2019-01-13T01:53:34.157Z,6.78
2019-01-13T01:58:37.611Z,6.74
2019-01-13T02:03:41.069Z,6.76
2019-01-13T02:08:44.494Z,6.79
2019-01-13T02:13:47.949Z,6.77
2019-01-13T02:18:51.474Z,6.82
2019-01-13T02:23:54.925Z,6.85
2019-01-13T02:28:58.355Z,6.88
2019-01-13T02:34:01.798Z,6.87
2019-01-13T02:39:07.386Z,6.89
2019-01-13T02:44:10.817Z,6.90
2019-01-13T02:49:14.258Z,6.94
2019-01-13T02:54:17.703Z,6.95
2019-01-13T02:59:21.426Z,6.91
2019-01-13T03:04:24.927Z,6.94
2019-01-13T03:09:28.383Z,6.96
2019-01-13T03:14:31.885Z,6.98
2019-01-13T03:19:35.340Z,6.99
2019-01-13T03:24:38.781Z,7.01
2019-01-13T03:29:42.226Z,7.05
2019-01-13T03:34:45.685Z,7.06
2019-01-13T03:39:49.364Z,7.09
2019-01-13T03:44:52.798Z,7.13
2019-01-13T03:49:56.231Z,7.12
2019-01-13T03:54:59.662Z,7.15
2019-01-13T04:00:05.167Z,7.14
2019-01-13T04:05:08.907Z,7.16
2019-01-13T04:10:14.571Z,7.16
2019-01-13T04:15:32.182Z,7.22
2019-01-13T04:20:35.630Z,7.27
2019-01-13T04:25:39.069Z,7.27
2019-01-13T04:30:42.519Z,7.27
2019-01-13T04:35:45.974Z,7.26
2019-01-13T04:40:49.404Z,7.31
2019-01-13T04:45:52.826Z,7.29
2019-01-13T04:50:56.258Z,7.36
2019-01-13T04:55:59.706Z,7.38
2019-01-13T05:01:03.141Z,7.40
2019-01-13T05:06:06.573Z,7.41
2019-01-13T05:11:10.073Z,7.43
2019-01-13T05:16:13.579Z,7.47
2019-01-13T05:21:17.035Z,7.49
2019-01-13T05:26:20.458Z,7.51
2019-01-13T05:31:23.937Z,7.53
2019-01-13T05:36:27.349Z,7.54
2019-01-13T05:41:30.778Z,7.56
2019-01-13T05:46:34.459Z,7.60
2019-01-13T05:51:37.892Z,7.64
2019-01-13T05:56:41.539Z,7.65
2019-01-13T06:01:49.174Z,7.63
2019-01-13T06:06:50.179Z,7.69
2019-01-13T06:11:53.610Z,7.65
2019-01-13T06:16:57.056Z,7.62
2019-01-13T06:22:00.592Z,7.60
2019-01-13T06:27:04.083Z,7.62
2019-01-13T06:32:07.530Z,7.66
2019-01-13T06:37:10.998Z,7.62
2019-01-13T06:42:14.430Z,7.65
2019-01-13T06:47:17.856Z,7.65
2019-01-13T06:52:21.288Z,7.66
2019-01-13T06:57:24.728Z,7.70
2019-01-13T07:02:28.246Z,7.70
2019-01-13T07:07:31.676Z,7.75
2019-01-13T07:12:35.162Z,7.64
2019-01-13T07:17:38.572Z,7.73
2019-01-13T07:22:43.036Z,7.77
2019-01-13T07:27:46.544Z,7.76
2019-01-13T07:32:50.033Z,7.81
2019-01-13T07:37:53.483Z,7.85
2019-01-13T07:42:56.965Z,7.84
2019-01-13T07:48:00.392Z,7.87
2019-01-13T07:53:04.104Z,7.87
2019-01-13T07:58:07.557Z,7.90
2019-01-13T08:03:11.049Z,7.96
2019-01-13T08:08:14.492Z,8.04
2019-01-13T08:13:17.920Z,8.07
2019-01-13T08:18:21.351Z,8.12
2019-01-13T08:23:24.792Z,8.15
2019-01-13T08:28:28.218Z,8.15
2019-01-13T08:33:31.661Z,8.16
2019-01-13T08:38:35.091Z,8.22
2019-01-13T08:43:38.542Z,8.28
2019-01-13T08:48:41.993Z,8.29
2019-01-13T08:53:45.438Z,8.35
2019-01-13T08:58:49.162Z,8.29
2019-01-13T09:03:52.675Z,8.29
2019-01-13T09:08:56.123Z,8.30
2019-01-13T09:13:59.558Z,8.34
2019-01-13T09:19:02.961Z,8.40
2019-01-13T09:24:06.398Z,8.50
2019-01-13T09:29:09.833Z,8.57
2019-01-13T09:34:13.253Z,8.57
2019-01-13T09:39:16.582Z,8.67
2019-01-13T09:44:19.994Z,8.69
2019-01-13T09:49:23.486Z,8.69
2019-01-13T09:54:26.929Z,8.79
2019-01-13T09:59:30.353Z,8.81
2019-01-13T10:04:33.766Z,8.91
2019-01-13T10:09:37.193Z,8.90
2019-01-13T10:14:40.621Z,9.00
2019-01-13T10:19:44.059Z,8.99
2019-01-13T10:24:47.478Z,9.07
2019-01-13T10:29:50.906Z,9.15
2019-01-13T10:34:54.466Z,9.16
2019-01-13T10:39:57.918Z,9.23
2019-01-13T10:45:01.382Z,9.26
2019-01-13T10:50:08.190Z,9.29
2019-01-13T10:55:11.863Z,9.29
2019-01-13T11:00:18.350Z,9.33
2019-01-13T11:05:21.896Z,9.32
2019-01-13T11:10:25.660Z,9.33
2019-01-13T11:15:29.172Z,9.35
2019-01-13T11:20:34.435Z,9.35
2019-01-13T11:25:38.178Z,9.32
2019-01-13T11:30:41.607Z,9.39
2019-01-13T11:35:46.007Z,9.44
2019-01-13T11:40:49.506Z,9.46
2019-01-13T11:45:52.937Z,9.49
2019-01-13T11:50:56.351Z,9.46
2019-01-13T11:55:59.777Z,9.46
2019-01-13T12:01:03.233Z,9.45
2019-01-13T12:06:06.795Z,9.50
2019-01-13T12:11:10.308Z,9.49
2019-01-13T12:16:13.728Z,9.47
2019-01-13T12:21:17.247Z,9.57
2019-01-13T12:26:20.673Z,9.48
2019-01-13T12:31:24.111Z,9.53
2019-01-13T12:36:27.525Z,9.48
2019-01-13T12:41:30.954Z,9.48
2019-01-13T12:46:34.365Z,9.47
2019-01-13T12:51:37.788Z,9.43
2019-01-13T12:56:41.225Z,9.48
2019-01-13T13:01:44.664Z,9.50
2019-01-13T13:06:48.102Z,9.51
2019-01-13T13:11:51.537Z,9.48
2019-01-13T13:16:54.980Z,9.42
2019-01-13T13:21:58.430Z,9.51
2019-01-13T13:27:01.846Z,9.45
2019-01-13T13:32:05.336Z,9.40
2019-01-13T13:37:08.831Z,9.40
2019-01-13T13:42:12.515Z,9.40
2019-01-13T13:47:15.928Z,9.45
2019-01-13T13:52:21.156Z,9.42
2019-01-13T13:58:20.827Z,9.46
2019-01-13T14:03:24.339Z,9.41
2019-01-13T14:08:27.869Z,9.40
2019-01-13T14:13:31.264Z,9.39
2019-01-13T14:18:40.718Z,9.35
2019-01-13T14:23:51.507Z,9.38
2019-01-13T14:29:03.801Z,9.38
2019-01-13T14:34:21.286Z,9.39
2019-01-13T14:39:16.157Z,9.35
2019-01-13T14:44:22.160Z,9.32
2019-01-13T14:49:37.372Z,9.33
2019-01-13T14:54:44.896Z,9.35
2019-01-13T14:59:54.237Z,9.37
2019-01-13T15:05:07.233Z,9.33
2019-01-13T15:10:14.202Z,9.27
2019-01-13T15:15:24.026Z,9.34
2019-01-13T15:20:34.478Z,9.30
2019-01-13T15:25:42.590Z,9.35
2019-01-13T15:30:52.813Z,9.31
2019-01-13T15:41:32.352Z,9.33
2019-01-13T15:46:49.122Z,9.28
2019-01-13T15:52:05.342Z,9.27
2019-01-13T15:57:02.864Z,9.27
2019-01-13T16:02:08.464Z,9.30
2019-01-13T16:07:20.018Z,9.33
2019-01-13T16:12:23.503Z,9.36
2019-01-13T16:17:29.547Z,9.36
2019-01-13T16:22:36.021Z,9.35
2019-01-13T16:27:48.111Z,9.40
2019-01-13T16:32:53.546Z,9.38
2019-01-13T16:38:01.782Z,9.35
2019-01-13T16:43:10.203Z,9.34
2019-01-13T16:48:15.652Z,9.38
2019-01-13T16:53:23.484Z,9.42
2019-01-13T16:58:35.406Z,9.39
2019-01-13T17:04:05.071Z,9.33
2019-01-13T17:09:12.562Z,9.33
2019-01-13T17:14:26.564Z,9.18
2019-01-13T17:19:32.832Z,9.30
2019-01-13T17:24:41.665Z,9.12
2019-01-13T17:29:43.737Z,9.04
2019-01-13T17:34:53.264Z,9.03
2019-01-13T17:39:57.058Z,8.91
2019-01-13T17:45:11.557Z,8.98
2019-01-13T17:50:27.853Z,9.00
2019-01-13T17:55:33.841Z,8.97
2019-01-13T18:00:46.602Z,8.94
2019-01-13T18:05:52.197Z,8.99
2019-01-13T18:11:00.492Z,9.02
2019-01-13T18:16:04.001Z,9.04
2019-01-13T18:21:07.432Z,8.91
2019-01-13T18:26:10.977Z,8.63
2019-01-13T18:31:14.432Z,8.74
2019-01-13T18:36:20.995Z,8.74
2019-01-13T18:41:26.851Z,8.74
2019-01-13T18:46:37.536Z,8.70
2019-01-13T18:51:37.565Z,8.74
2019-01-13T18:56:41.261Z,8.68
2019-01-13T19:01:48.089Z,8.75
2019-01-13T19:06:51.667Z,8.73
2019-01-13T19:11:55.073Z,8.64
2019-01-13T19:16:59.503Z,8.54
2019-01-13T19:22:10.084Z,8.48
2019-01-13T19:27:12.750Z,8.49
2019-01-13T19:32:19.074Z,8.51
2019-01-13T19:37:34.355Z,8.46
2019-01-13T19:42:37.979Z,8.50
2019-01-13T19:47:44.514Z,8.50
2019-01-13T19:52:48.060Z,8.47
2019-01-13T19:57:51.515Z,8.56
2019-01-13T20:02:54.991Z,8.50
2019-01-13T20:07:58.544Z,8.53
2019-01-13T20:13:02.006Z,8.59
2019-01-13T20:18:05.510Z,8.55
2019-01-13T20:23:08.944Z,8.32
2019-01-13T20:28:12.378Z,8.17
2019-01-13T20:33:15.817Z,8.02
2019-01-13T20:38:19.258Z,8.05
2019-01-13T20:43:22.672Z,8.17
2019-01-13T20:48:26.247Z,8.20
2019-01-13T20:53:29.675Z,8.17
2019-01-13T20:58:33.196Z,8.28
2019-01-13T21:03:36.636Z,8.04
2019-01-13T21:08:40.126Z,8.02
2019-01-13T21:13:43.582Z,7.97
2019-01-13T21:18:47.576Z,7.99
2019-01-13T21:23:51.135Z,7.98
2019-01-13T21:28:54.562Z,7.95
2019-01-13T21:33:58.047Z,7.96
2019-01-13T21:39:01.500Z,7.96
2019-01-13T21:44:05.107Z,7.97
2019-01-13T21:49:08.609Z,7.91
2019-01-13T21:54:12.081Z,7.88
2019-01-13T21:59:15.607Z,7.84
2019-01-13T22:04:19.054Z,7.90
2019-01-13T22:09:22.472Z,7.84
2019-01-13T22:14:25.939Z,7.78
2019-01-13T22:19:29.380Z,7.76
2019-01-13T22:24:32.804Z,7.84
2019-01-13T22:29:36.260Z,7.76
2019-01-13T22:34:39.767Z,7.77
2019-01-13T22:39:43.191Z,7.79
2019-01-13T22:44:46.604Z,7.83
2019-01-13T22:49:50.054Z,7.81
2019-01-13T22:54:53.542Z,7.77
2019-01-13T22:59:57.051Z,7.88
2019-01-13T23:05:00.549Z,7.85
2019-01-13T23:10:08.950Z,7.89
2019-01-13T23:15:12.475Z,7.92
2019-01-13T23:20:16.191Z,7.96
2019-01-13T23:25:19.631Z,7.94
2019-01-13T23:30:23.244Z,7.96
2019-01-13T23:35:26.671Z,7.98
2019-01-13T23:40:30.109Z,7.95
2019-01-13T23:45:33.696Z,7.90
2019-01-13T23:50:37.214Z,7.89
2019-01-13T23:55:40.698Z,7.85
